createdAt,value
2019-03-04T00:02:11.450Z,13.20
2019-03-04T00:04:40.235Z,13.20
2019-03-04T00:07:09.066Z,13.20
2019-03-04T00:09:40.996Z,13.20
2019-03-04T00:12:09.966Z,13.20
2019-03-04T00:14:38.828Z,13.10
2019-03-04T00:17:07.845Z,13.20
2019-03-04T00:19:36.693Z,13.20
2019-03-04T00:22:05.649Z,13.20
2019-03-04T00:24:34.871Z,13.10
2019-03-04T00:27:03.772Z,13.10
2019-03-04T00:29:32.657Z,13.10
2019-03-04T00:32:01.632Z,13.10
2019-03-04T00:34:30.445Z,13.20
2019-03-04T00:36:59.244Z,13.20
2019-03-04T00:39:28.281Z,13.20
2019-03-04T00:41:57.120Z,13.20
2019-03-04T00:44:27.512Z,13.10
2019-03-04T00:46:56.596Z,13.10
2019-03-04T00:49:25.448Z,13.10
2019-03-04T00:51:54.229Z,13.10
2019-03-04T00:54:23.463Z,13.20
2019-03-04T00:56:52.294Z,13.20
2019-03-04T00:59:21.117Z,13.20
2019-03-04T01:01:50.169Z,13.20
2019-03-04T01:04:18.978Z,13.20
2019-03-04T01:06:47.849Z,13.20
2019-03-04T01:09:17.656Z,13.10
2019-03-04T01:11:46.760Z,13.20
2019-03-04T01:14:15.765Z,13.10
2019-03-04T01:16:44.792Z,13.20
2019-03-04T01:19:13.767Z,13.10
2019-03-04T01:21:42.637Z,13.20
2019-03-04T01:24:11.638Z,13.10
2019-03-04T01:26:40.560Z,13.10
2019-03-04T01:29:09.365Z,13.10
2019-03-04T01:31:38.421Z,13.20
2019-03-04T01:34:07.417Z,13.10
2019-03-04T01:36:36.217Z,13.10
2019-03-04T01:39:06.526Z,13.10
2019-03-04T01:41:35.430Z,13.20
2019-03-04T01:44:05.244Z,13.10
2019-03-04T01:46:34.260Z,13.20
2019-03-04T01:49:03.038Z,13.20
2019-03-04T01:51:31.849Z,13.20
2019-03-04T01:54:00.924Z,13.10
2019-03-04T01:56:29.760Z,13.00
2019-03-04T01:58:58.580Z,13.00
2019-03-04T02:01:27.661Z,13.00
2019-03-04T02:03:56.465Z,12.90
2019-03-04T02:06:25.285Z,12.90
2019-03-04T02:08:54.424Z,12.90
2019-03-04T02:11:23.304Z,13.00
2019-03-04T02:13:52.142Z,13.00
2019-03-04T02:16:21.217Z,12.90
2019-03-04T02:18:50.166Z,12.90
2019-03-04T02:21:19.017Z,12.90
2019-03-04T02:23:48.178Z,12.90
2019-03-04T02:26:21.088Z,12.80
2019-03-04T02:28:50.002Z,12.90
2019-03-04T02:31:19.077Z,12.90
2019-03-04T02:33:47.930Z,12.90
2019-03-04T02:36:17.079Z,12.90
2019-03-04T02:38:45.933Z,13.00
2019-03-04T02:41:14.751Z,12.90
2019-03-04T02:43:43.872Z,12.90
2019-03-04T02:46:12.858Z,13.00
2019-03-04T02:48:41.657Z,13.00
2019-03-04T02:51:11.005Z,12.90
2019-03-04T02:53:39.783Z,12.90
2019-03-04T02:56:08.674Z,13.00
2019-03-04T02:58:37.699Z,13.00
2019-03-04T03:01:06.773Z,13.00
2019-03-04T03:03:35.593Z,12.90
2019-03-04T03:06:04.870Z,12.90
2019-03-04T03:08:33.737Z,12.80
2019-03-04T03:11:02.594Z,12.80
2019-03-04T03:13:31.665Z,12.80
2019-03-04T03:16:00.530Z,12.80
2019-03-04T03:18:29.450Z,12.80
2019-03-04T03:20:58.642Z,12.80
2019-03-04T03:23:27.460Z,12.70
2019-03-04T03:25:56.376Z,12.70
2019-03-04T03:28:25.391Z,12.60
2019-03-04T03:30:54.390Z,12.60
2019-03-04T03:33:23.458Z,12.70
2019-03-04T03:35:52.475Z,12.70
2019-03-04T03:38:21.477Z,12.70
2019-03-04T03:40:50.383Z,12.60
2019-03-04T03:43:19.396Z,12.60
2019-03-04T03:45:48.395Z,12.60
2019-03-04T03:48:17.190Z,12.60
2019-03-04T03:50:46.273Z,12.50
2019-03-04T03:53:15.142Z,12.60
2019-03-04T03:55:44.126Z,12.50
2019-03-04T03:58:13.325Z,12.50
2019-03-04T04:00:42.309Z,12.50
2019-03-04T04:03:11.238Z,12.60
2019-03-04T04:05:40.615Z,12.60
2019-03-04T04:08:09.417Z,12.60
2019-03-04T04:10:38.216Z,12.50
2019-03-04T04:13:07.346Z,12.50
2019-03-04T04:15:36.202Z,12.50
2019-03-04T04:18:05.030Z,12.50
2019-03-04T04:20:34.176Z,12.60
2019-03-04T04:23:03.070Z,12.70
2019-03-04T04:25:31.906Z,12.70
2019-03-04T04:28:00.975Z,12.80
2019-03-04T04:30:31.101Z,12.80
2019-03-04T04:32:59.897Z,12.80
2019-03-04T04:35:29.524Z,12.80
2019-03-04T04:37:58.656Z,12.90
2019-03-04T04:40:27.597Z,12.80
2019-03-04T04:42:56.467Z,12.70
2019-03-04T04:45:25.680Z,12.60
2019-03-04T04:47:54.533Z,12.70
2019-03-04T04:50:23.413Z,12.70
2019-03-04T04:52:52.411Z,12.70
2019-03-04T04:55:21.504Z,12.60
2019-03-04T04:57:50.322Z,12.60
2019-03-04T05:00:19.505Z,12.50
2019-03-04T05:02:48.372Z,12.60
2019-03-04T05:05:17.425Z,12.60
2019-03-04T05:07:46.500Z,12.70
2019-03-04T05:10:17.134Z,12.60
2019-03-04T05:12:46.028Z,12.70
2019-03-04T05:15:15.420Z,12.80
2019-03-04T05:17:44.532Z,12.60
2019-03-04T05:20:18.858Z,11.40
2019-03-04T05:22:47.802Z,10.10
2019-03-04T05:25:16.704Z,9.50
2019-03-04T05:27:45.889Z,9.40
2019-03-04T05:30:17.312Z,9.30
2019-03-04T05:32:46.185Z,9.30
2019-03-04T05:35:15.145Z,9.10
2019-03-04T05:37:43.977Z,9.10
2019-03-04T05:40:14.506Z,9.10
2019-03-04T05:42:43.648Z,9.10
2019-03-04T05:45:14.155Z,9.10
2019-03-04T05:47:43.233Z,9.10
2019-03-04T05:50:13.929Z,9.00
2019-03-04T05:52:42.822Z,8.60
2019-03-04T05:55:13.569Z,8.50
2019-03-04T05:57:42.726Z,8.60
2019-03-04T06:00:17.033Z,8.70
2019-03-04T06:02:46.191Z,8.70
2019-03-04T06:05:15.262Z,8.70
2019-03-04T06:07:56.839Z,8.90
2019-03-04T06:10:25.849Z,8.90
2019-03-04T06:12:54.672Z,8.90
2019-03-04T06:15:45.521Z,8.90
2019-03-04T06:18:14.398Z,8.90
2019-03-04T06:20:43.253Z,8.90
2019-03-04T06:23:12.187Z,8.90
2019-03-04T06:25:40.982Z,8.90
2019-03-04T06:28:09.884Z,8.90
2019-03-04T06:30:39.092Z,8.90
2019-03-04T06:33:09.070Z,8.90
2019-03-04T06:35:37.945Z,8.90
2019-03-04T06:38:07.798Z,8.90
2019-03-04T06:40:36.701Z,8.80
2019-03-04T06:43:05.637Z,8.80
2019-03-04T06:45:34.885Z,8.90
2019-03-04T06:48:03.881Z,8.90
2019-03-04T06:50:57.844Z,9.00
2019-03-04T06:53:59.797Z,9.10
2019-03-04T06:56:54.670Z,9.00
2019-03-04T06:59:45.207Z,9.10
2019-03-04T07:02:14.618Z,9.10
2019-03-04T07:04:59.336Z,9.10
2019-03-04T07:07:28.440Z,9.20
2019-03-04T07:09:57.288Z,9.20
2019-03-04T07:12:26.879Z,9.20
2019-03-04T07:14:55.885Z,9.10
2019-03-04T07:17:24.820Z,9.20
2019-03-04T07:20:09.370Z,9.30
2019-03-04T07:22:38.180Z,9.30
2019-03-04T07:25:07.246Z,9.30
2019-03-04T07:27:36.317Z,9.30
2019-03-04T07:30:08.784Z,9.20
2019-03-04T07:32:37.793Z,9.20
2019-03-04T07:35:07.231Z,9.20
2019-03-04T07:37:36.156Z,9.20
2019-03-04T07:40:08.762Z,9.10
2019-03-04T07:42:37.764Z,8.90
2019-03-04T07:45:07.650Z,8.80
2019-03-04T07:47:36.569Z,8.80
2019-03-04T07:50:06.134Z,8.70
2019-03-04T07:52:35.266Z,8.80
2019-03-04T07:55:04.340Z,8.70
2019-03-04T07:57:33.336Z,8.60
2019-03-04T08:00:02.481Z,8.60
2019-03-04T08:02:31.537Z,8.60
2019-03-04T08:05:00.404Z,8.50
2019-03-04T08:07:38.348Z,8.50
2019-03-04T08:10:58.080Z,8.40
2019-03-04T08:13:40.637Z,8.40
2019-03-04T08:16:28.648Z,8.50
2019-03-04T08:18:57.760Z,8.40
2019-03-04T08:21:26.670Z,8.40
2019-03-04T08:23:55.688Z,8.30
2019-03-04T08:26:24.626Z,8.30
2019-03-04T08:28:53.497Z,8.20
2019-03-04T08:31:22.517Z,8.20
2019-03-04T08:33:51.517Z,8.20
2019-03-04T08:36:20.417Z,8.10
2019-03-04T08:38:49.277Z,8.10
2019-03-04T08:41:18.182Z,8.00
2019-03-04T08:43:47.208Z,7.80
2019-03-04T08:46:16.309Z,7.70
2019-03-04T08:48:45.135Z,7.60
2019-03-04T08:51:14.588Z,7.50
2019-03-04T08:53:43.480Z,7.40
2019-03-04T08:56:12.549Z,7.40
2019-03-04T08:58:41.681Z,7.30
2019-03-04T09:01:10.659Z,7.20
2019-03-04T09:03:39.493Z,7.10
2019-03-04T09:06:08.767Z,7.20
2019-03-04T09:08:37.979Z,7.00
2019-03-04T09:11:06.773Z,7.00
2019-03-04T09:13:35.885Z,7.10
2019-03-04T09:16:04.844Z,7.10
2019-03-04T09:18:33.666Z,7.10
2019-03-04T09:21:02.804Z,7.10
2019-03-04T09:23:31.593Z,7.00
2019-03-04T09:26:06.256Z,7.10
2019-03-04T09:28:35.063Z,7.20
2019-03-04T09:31:03.952Z,7.20
2019-03-04T09:33:33.244Z,7.20
2019-03-04T09:36:02.113Z,7.20
2019-03-04T09:38:30.953Z,7.40
2019-03-04T09:41:00.191Z,7.70
2019-03-04T09:43:30.453Z,7.70
2019-03-04T09:46:01.360Z,7.60
2019-03-04T09:48:30.147Z,7.70
2019-03-04T09:50:59.022Z,7.80
2019-03-04T09:53:28.069Z,7.70
2019-03-04T09:55:56.995Z,7.80
2019-03-04T09:58:28.068Z,7.80
2019-03-04T10:01:23.812Z,7.90
2019-03-04T10:03:59.387Z,7.90
2019-03-04T10:06:59.685Z,8.00
2019-03-04T10:09:58.261Z,8.20
2019-03-04T10:12:44.963Z,8.70
2019-03-04T10:15:26.008Z,8.90
2019-03-04T10:18:18.326Z,9.00
2019-03-04T10:21:20.519Z,9.00
2019-03-04T10:24:30.964Z,8.80
2019-03-04T10:27:13.297Z,8.60
2019-03-04T10:30:07.601Z,8.70
2019-03-04T10:33:14.936Z,8.70
2019-03-04T10:35:53.861Z,8.50
2019-03-04T10:39:00.624Z,8.50
2019-03-04T10:41:41.129Z,8.70
2019-03-04T10:44:51.858Z,8.90
2019-03-04T10:47:22.795Z,8.80
2019-03-04T10:49:51.877Z,8.70
2019-03-04T10:52:20.661Z,8.80
2019-03-04T10:54:49.660Z,8.90
2019-03-04T10:57:18.457Z,9.00
2019-03-04T10:59:47.273Z,8.90
2019-03-04T11:02:16.329Z,8.90
2019-03-04T11:04:45.255Z,8.80
2019-03-04T11:07:14.283Z,8.90
2019-03-04T11:09:43.341Z,9.10
2019-03-04T11:12:14.067Z,9.30
2019-03-04T11:14:42.806Z,9.30
2019-03-04T11:17:15.910Z,9.20
2019-03-04T11:19:45.133Z,9.40
2019-03-04T11:22:14.247Z,9.50
2019-03-04T11:24:43.192Z,9.50
2019-03-04T11:27:12.307Z,9.60
2019-03-04T11:29:41.644Z,9.60
2019-03-04T11:32:10.576Z,9.50
2019-03-04T11:34:39.618Z,9.50
2019-03-04T11:37:08.422Z,9.40
2019-03-04T11:40:00.829Z,9.30
2019-03-04T11:42:29.664Z,9.00
2019-03-04T11:44:58.490Z,9.10
2019-03-04T11:47:27.688Z,9.40
2019-03-04T11:49:56.492Z,9.40
2019-03-04T11:52:25.321Z,9.30
2019-03-04T11:54:54.597Z,9.40
2019-03-04T11:57:23.448Z,9.60
2019-03-04T11:59:52.277Z,9.60
2019-03-04T12:02:22.934Z,9.70
2019-03-04T12:04:51.863Z,9.60
2019-03-04T12:07:20.855Z,9.70
2019-03-04T12:09:50.109Z,10.00
2019-03-04T12:12:19.366Z,9.90
2019-03-04T12:14:48.457Z,9.80
2019-03-04T12:17:17.558Z,9.90
2019-03-04T12:19:46.473Z,9.80
2019-03-04T12:22:15.329Z,9.60
2019-03-04T12:24:44.476Z,9.50
2019-03-04T12:27:13.307Z,9.50
2019-03-04T12:29:42.303Z,9.80
2019-03-04T12:32:27.399Z,9.70
2019-03-04T12:34:56.199Z,9.60
2019-03-04T12:37:25.005Z,9.60
2019-03-04T12:39:53.997Z,9.60
2019-03-04T12:42:22.972Z,9.60
2019-03-04T12:44:51.907Z,9.50
2019-03-04T12:47:20.972Z,9.50
2019-03-04T12:49:49.835Z,9.50
2019-03-04T12:52:18.676Z,9.80
2019-03-04T12:54:47.653Z,9.80
2019-03-04T12:57:16.477Z,9.70
2019-03-04T12:59:45.297Z,10.00
2019-03-04T13:02:14.548Z,10.50
2019-03-04T13:04:43.540Z,10.90
2019-03-04T13:07:12.434Z,10.70
2019-03-04T13:09:41.392Z,10.30
2019-03-04T13:12:10.261Z,10.10
2019-03-04T13:14:39.116Z,10.30
2019-03-04T13:17:08.245Z,10.40
2019-03-04T13:19:42.281Z,10.30
2019-03-04T13:22:11.188Z,10.40
2019-03-04T13:24:40.140Z,10.50
2019-03-04T13:27:09.160Z,10.40
2019-03-04T13:29:38.277Z,10.30
2019-03-04T13:32:07.177Z,10.50
2019-03-04T13:34:36.169Z,10.90
2019-03-04T13:37:05.311Z,10.90
2019-03-04T13:39:34.116Z,10.90
2019-03-04T13:42:03.009Z,10.80
2019-03-04T13:44:32.123Z,10.90
2019-03-04T13:47:00.919Z,10.90
2019-03-04T13:49:29.805Z,10.80
2019-03-04T13:51:59.024Z,10.50
2019-03-04T13:54:27.886Z,10.40
2019-03-04T13:56:56.773Z,10.30
2019-03-04T13:59:25.988Z,10.30
2019-03-04T14:01:54.800Z,10.40
2019-03-04T14:04:23.640Z,10.30
2019-03-04T14:06:53.620Z,10.50
2019-03-04T14:09:22.903Z,10.60
2019-03-04T14:11:51.880Z,10.70
2019-03-04T14:14:20.954Z,10.70
2019-03-04T14:16:49.838Z,10.80
2019-03-04T14:19:18.669Z,10.80
2019-03-04T14:21:48.157Z,10.80
2019-03-04T14:24:17.070Z,10.70
2019-03-04T14:26:46.149Z,10.60
2019-03-04T14:29:15.198Z,10.60
2019-03-04T14:31:44.130Z,10.40
2019-03-04T14:34:14.482Z,10.50
2019-03-04T14:36:43.572Z,10.50
2019-03-04T14:39:15.510Z,10.40
2019-03-04T14:41:44.618Z,10.30
2019-03-04T14:44:13.409Z,10.10
2019-03-04T14:46:42.237Z,10.20
2019-03-04T14:49:11.821Z,10.30
2019-03-04T14:51:40.607Z,10.30
2019-03-04T14:54:09.641Z,10.30
2019-03-04T14:56:38.845Z,10.10
2019-03-04T14:59:10.857Z,10.00
2019-03-04T15:01:38.653Z,10.10
2019-03-04T15:04:07.714Z,10.20
2019-03-04T15:06:36.551Z,10.00
2019-03-04T15:09:08.076Z,9.90
2019-03-04T15:11:36.952Z,9.90
2019-03-04T15:14:06.044Z,10.00
2019-03-04T15:16:34.933Z,9.90
2019-03-04T15:19:03.962Z,9.80
2019-03-04T15:21:33.069Z,9.80
2019-03-04T15:24:01.948Z,9.70
2019-03-04T15:26:40.527Z,9.60
2019-03-04T15:29:01.752Z,9.50
2019-03-04T15:31:30.648Z,9.40
2019-03-04T15:33:59.597Z,9.30
2019-03-04T15:36:28.728Z,9.20
2019-03-04T15:38:57.653Z,9.20
2019-03-04T15:41:26.441Z,9.20
2019-03-04T15:43:55.504Z,9.30
2019-03-04T15:46:24.737Z,9.30
2019-03-04T15:48:53.543Z,9.20
2019-03-04T15:51:22.734Z,9.20
2019-03-04T15:53:51.585Z,9.20
2019-03-04T15:56:20.564Z,9.10
2019-03-04T15:58:51.711Z,9.00
2019-03-04T16:01:20.344Z,9.00
2019-03-04T16:03:49.241Z,9.00
2019-03-04T16:06:18.393Z,9.00
2019-03-04T16:08:47.274Z,9.00
2019-03-04T16:11:16.404Z,8.90
2019-03-04T16:13:52.710Z,8.90
2019-03-04T16:16:16.248Z,8.90
2019-03-04T16:18:45.441Z,8.90
2019-03-04T16:21:14.616Z,8.90
2019-03-04T16:23:43.559Z,8.80
2019-03-04T16:26:14.068Z,8.90
2019-03-04T16:28:43.773Z,8.80
2019-03-04T16:31:12.817Z,8.80
2019-03-04T16:33:41.717Z,8.80
2019-03-04T16:36:10.887Z,8.80
2019-03-04T16:38:39.715Z,8.70
2019-03-04T16:41:08.517Z,8.70
2019-03-04T16:43:37.805Z,8.70
2019-03-04T16:46:06.770Z,8.60
2019-03-04T16:48:35.589Z,8.60
2019-03-04T16:51:05.460Z,8.60
2019-03-04T16:53:34.800Z,8.60
2019-03-04T16:56:03.804Z,8.60
2019-03-04T16:58:32.987Z,8.60
2019-03-04T17:01:02.171Z,8.60
2019-03-04T17:03:31.060Z,8.60
2019-03-04T17:06:00.190Z,8.50
2019-03-04T17:08:28.988Z,8.50
2019-03-04T17:10:57.953Z,8.50
2019-03-04T17:13:26.960Z,8.40
2019-03-04T17:15:55.864Z,8.50
2019-03-04T17:18:24.800Z,8.40
2019-03-04T17:20:53.886Z,8.30
2019-03-04T17:23:22.744Z,8.30
2019-03-04T17:25:51.879Z,8.30
2019-03-04T17:28:21.225Z,8.30
2019-03-04T17:30:50.120Z,8.30
2019-03-04T17:33:18.954Z,8.30
2019-03-04T17:35:47.999Z,8.30
2019-03-04T17:38:16.901Z,8.30
2019-03-04T17:40:45.808Z,8.30
2019-03-04T17:43:15.324Z,8.30
2019-03-04T17:45:44.275Z,8.30
2019-03-04T17:48:13.148Z,8.30
2019-03-04T17:50:42.487Z,8.30
2019-03-04T17:53:11.502Z,8.30
2019-03-04T17:55:40.608Z,8.30
2019-03-04T17:58:09.627Z,8.30
2019-03-04T18:00:40.661Z,8.30
2019-03-04T18:03:09.614Z,8.30
2019-03-04T18:05:38.833Z,8.30
2019-03-04T18:08:07.899Z,8.30
2019-03-04T18:10:36.864Z,8.20
2019-03-04T18:13:06.317Z,8.30
2019-03-04T18:15:35.456Z,8.20
2019-03-04T18:18:04.478Z,8.20
2019-03-04T18:20:34.705Z,8.20
2019-03-04T18:23:03.936Z,8.20
2019-03-04T18:25:39.533Z,8.20
2019-03-04T18:28:12.784Z,8.10
2019-03-04T18:30:59.930Z,8.20
2019-03-04T18:34:14.485Z,8.20
2019-03-04T18:36:55.755Z,8.20
2019-03-04T18:39:54.680Z,8.20
2019-03-04T18:42:52.673Z,8.20
2019-03-04T18:45:52.777Z,8.20
2019-03-04T18:48:47.731Z,8.20
2019-03-04T18:51:16.598Z,8.20
2019-03-04T18:53:45.396Z,8.20
2019-03-04T18:56:21.744Z,8.20
2019-03-04T18:58:47.136Z,8.20
2019-03-04T19:01:15.951Z,8.30
2019-03-04T19:03:44.784Z,8.20
2019-03-04T19:06:13.996Z,8.10
2019-03-04T19:08:43.305Z,8.30
2019-03-04T19:11:12.289Z,8.20
2019-03-04T19:13:41.203Z,8.10
2019-03-04T19:16:10.548Z,8.10
2019-03-04T19:18:40.897Z,8.10
2019-03-04T19:21:09.997Z,8.00
2019-03-04T19:23:39.069Z,8.00
2019-03-04T19:26:08.011Z,8.10
2019-03-04T19:28:37.015Z,8.00
2019-03-04T19:31:06.429Z,8.00
2019-03-04T19:33:35.268Z,8.00
2019-03-04T19:36:04.300Z,8.10
2019-03-04T19:38:33.409Z,8.10
2019-03-04T19:41:02.321Z,8.20
2019-03-04T19:43:33.142Z,8.20
2019-03-04T19:46:01.961Z,8.20
2019-03-04T19:48:34.248Z,8.20
2019-03-04T19:51:03.365Z,8.20
2019-03-04T19:53:32.332Z,8.20
2019-03-04T19:56:01.224Z,8.20
2019-03-04T19:58:30.320Z,8.20
2019-03-04T20:00:59.448Z,8.10
2019-03-04T20:03:28.376Z,8.10
2019-03-04T20:05:57.488Z,8.10
2019-03-04T20:08:26.482Z,8.20
2019-03-04T20:10:55.445Z,8.10
2019-03-04T20:13:24.753Z,8.10
2019-03-04T20:15:54.130Z,8.10
2019-03-04T20:18:23.065Z,8.10
2019-03-04T20:20:52.072Z,8.20
2019-03-04T20:23:20.959Z,8.20
2019-03-04T20:25:50.908Z,8.10
2019-03-04T20:28:20.021Z,8.10
2019-03-04T20:30:48.884Z,8.00
2019-03-04T20:33:37.189Z,8.00
2019-03-04T20:36:06.281Z,7.90
2019-03-04T20:38:38.308Z,7.90
2019-03-04T20:41:07.155Z,7.90
2019-03-04T20:43:36.021Z,7.90
2019-03-04T20:46:05.214Z,8.00
2019-03-04T20:48:34.008Z,8.00
2019-03-04T20:51:02.918Z,8.00
2019-03-04T20:53:32.105Z,8.00
2019-03-04T20:56:00.939Z,8.00
2019-03-04T20:58:29.751Z,8.00
2019-03-04T21:00:59.010Z,8.00
2019-03-04T21:03:34.909Z,8.10
2019-03-04T21:06:00.674Z,8.10
2019-03-04T21:08:32.563Z,8.10
2019-03-04T21:11:01.523Z,8.10
2019-03-04T21:13:35.895Z,8.20
2019-03-04T21:16:01.517Z,8.10
2019-03-04T21:18:30.570Z,8.10
2019-03-04T21:21:00.171Z,8.10
2019-03-04T21:23:29.180Z,8.10
2019-03-04T21:26:19.603Z,8.20
2019-03-04T21:29:29.941Z,8.10
2019-03-04T21:32:14.805Z,8.10
2019-03-04T21:35:26.087Z,8.10
2019-03-04T21:37:55.472Z,8.10
2019-03-04T21:40:32.912Z,8.10
2019-03-04T21:43:09.851Z,8.10
2019-03-04T21:46:14.880Z,8.10
2019-03-04T21:48:50.645Z,8.10
2019-03-04T21:51:40.354Z,8.10
2019-03-04T21:54:09.838Z,8.10
2019-03-04T21:56:56.966Z,8.10
2019-03-04T21:59:26.013Z,8.10
2019-03-04T22:02:00.165Z,8.10
2019-03-04T22:04:29.674Z,8.10
2019-03-04T22:06:58.980Z,8.10
2019-03-04T22:09:29.268Z,8.20
2019-03-04T22:11:58.376Z,8.30
2019-03-04T22:14:27.297Z,8.20
2019-03-04T22:16:56.221Z,8.20
2019-03-04T22:19:25.457Z,8.20
2019-03-04T22:21:54.345Z,8.30
2019-03-04T22:24:23.172Z,8.20
2019-03-04T22:26:52.243Z,8.20
2019-03-04T22:29:21.143Z,8.20
2019-03-04T22:31:50.090Z,8.10
2019-03-04T22:34:19.174Z,8.10
2019-03-04T22:36:48.141Z,8.10
2019-03-04T22:39:17.096Z,8.10
2019-03-04T22:41:46.219Z,8.00
2019-03-04T22:44:15.095Z,7.90
2019-03-04T22:46:43.921Z,8.00
2019-03-04T22:49:13.062Z,7.90
2019-03-04T22:51:41.908Z,7.90
2019-03-04T22:54:11.151Z,7.90
2019-03-04T22:56:40.152Z,7.90
2019-03-04T22:59:09.001Z,7.90
2019-03-04T23:02:01.742Z,7.90
2019-03-04T23:04:33.581Z,7.90
2019-03-04T23:07:13.985Z,8.00
2019-03-04T23:10:23.100Z,8.00
2019-03-04T23:13:13.133Z,8.00
2019-03-04T23:15:42.777Z,8.00
2019-03-04T23:18:11.557Z,8.00
2019-03-04T23:20:40.728Z,8.00
2019-03-04T23:23:09.513Z,7.90
2019-03-04T23:25:38.628Z,7.90
2019-03-04T23:28:07.719Z,7.90
2019-03-04T23:30:36.573Z,7.90
2019-03-04T23:33:05.516Z,7.90
2019-03-04T23:35:34.417Z,7.90
2019-03-04T23:38:03.297Z,7.90
2019-03-04T23:40:32.113Z,7.90
2019-03-04T23:43:01.358Z,7.90
2019-03-04T23:45:30.249Z,7.80
2019-03-04T23:47:59.133Z,7.80
2019-03-04T23:50:28.164Z,7.80
2019-03-04T23:52:57.022Z,7.80
2019-03-04T23:55:25.797Z,7.70
2019-03-04T23:57:54.781Z,7.60
